createdAt,value
2022-10-17T00:03:49.787Z,101368.69
2022-10-17T00:08:52.490Z,101384.22
2022-10-17T00:13:56.891Z,101418.59
2022-10-17T00:19:01.585Z,101421.25
2022-10-17T00:24:04.840Z,101417.00
2022-10-17T00:29:08.845Z,101331.91
2022-10-17T00:34:13.112Z,101395.50
2022-10-17T00:39:15.820Z,101405.59
2022-10-17T00:44:59.028Z,101402.94
2022-10-17T00:50:03.896Z,101263.22
2022-10-17T00:55:13.240Z,101159.41
2022-10-17T01:00:18.693Z,101407.69
2022-10-17T01:05:23.927Z,101323.56
2022-10-17T01:10:33.469Z,101402.69
2022-10-17T01:15:50.086Z,101133.13
2022-10-17T01:21:23.793Z,101402.44
2022-10-17T01:26:38.373Z,101179.88
2022-10-17T01:31:49.698Z,101098.56
2022-10-17T01:37:01.901Z,101354.88
2022-10-17T01:42:16.150Z,101237.53
2022-10-17T01:47:24.574Z,101391.03
2022-10-17T01:52:31.152Z,101344.91
2022-10-17T01:57:37.029Z,101378.44
2022-10-17T02:02:42.291Z,101300.88
2022-10-17T02:07:44.985Z,101364.81
2022-10-17T02:12:55.398Z,101261.22
2022-10-17T02:18:15.039Z,101365.66
2022-10-17T02:23:25.515Z,101325.88
2022-10-17T02:28:38.169Z,101364.69
2022-10-17T02:33:46.778Z,101292.59
2022-10-17T02:38:53.522Z,101359.19
2022-10-17T02:43:58.813Z,101355.69
2022-10-17T02:49:13.217Z,101363.09
2022-10-17T02:54:22.243Z,101170.50
2022-10-17T02:59:27.524Z,101327.66
2022-10-17T03:04:31.805Z,101336.19
2022-10-17T03:09:34.648Z,101151.72
2022-10-17T03:14:37.638Z,101374.78
2022-10-17T03:19:41.857Z,101185.16
2022-10-17T03:24:45.133Z,101159.38
2022-10-17T03:29:48.419Z,101155.84
2022-10-17T03:34:53.471Z,101225.78
2022-10-17T03:39:56.944Z,101257.91
2022-10-17T03:44:59.915Z,101232.06
2022-10-17T03:50:05.121Z,101373.28
2022-10-17T03:55:10.973Z,101161.53
2022-10-17T04:00:15.718Z,101235.38
2022-10-17T04:05:20.364Z,101397.81
2022-10-17T04:10:26.576Z,101381.19
2022-10-17T04:15:29.474Z,101388.81
2022-10-17T04:20:35.836Z,101407.16
2022-10-17T04:25:38.627Z,101400.59
2022-10-17T04:30:45.083Z,101390.25
2022-10-17T04:35:58.160Z,101266.16
2022-10-17T04:41:03.178Z,101330.59
2022-10-17T04:46:09.195Z,101410.06
2022-10-17T04:51:16.713Z,101401.44
2022-10-17T04:56:50.031Z,101257.41
2022-10-17T05:01:53.460Z,101075.97
2022-10-17T05:06:58.414Z,101033.09
2022-10-17T05:12:17.682Z,101244.47
2022-10-17T05:17:21.809Z,101445.16
2022-10-17T05:22:27.172Z,101399.78
2022-10-17T05:27:51.678Z,101361.16
2022-10-17T05:32:56.421Z,101288.25
2022-10-17T05:38:01.801Z,101254.91
2022-10-17T05:43:07.449Z,101462.03
2022-10-17T05:48:10.311Z,101450.97
2022-10-17T05:53:14.438Z,101456.44
2022-10-17T06:04:02.706Z,101455.84
2022-10-17T06:09:07.950Z,101404.38
2022-10-17T06:14:14.089Z,101459.75
2022-10-17T06:19:17.754Z,101129.03
2022-10-17T06:24:23.388Z,101486.47
2022-10-17T06:29:28.301Z,101424.78
2022-10-17T06:34:31.120Z,101476.22
2022-10-17T06:39:35.822Z,101484.47
2022-10-17T06:44:48.758Z,101416.41
2022-10-17T06:50:16.656Z,101388.88
2022-10-17T06:55:45.310Z,101360.94
2022-10-17T07:01:03.198Z,101343.13
2022-10-17T07:06:07.174Z,101518.50
2022-10-17T07:11:13.391Z,101511.72
2022-10-17T07:16:17.297Z,101283.88
2022-10-17T07:21:23.305Z,101521.41
2022-10-17T07:26:27.425Z,101523.66
2022-10-17T07:31:30.304Z,101521.97
2022-10-17T07:36:33.293Z,101439.00
2022-10-17T07:41:40.523Z,101546.91
2022-10-17T07:46:44.162Z,101529.34
2022-10-17T07:51:48.683Z,101538.09
2022-10-17T07:56:52.843Z,101261.09
2022-10-17T08:01:56.424Z,101548.91
2022-10-17T08:07:17.919Z,101413.78
2022-10-17T08:12:25.985Z,101570.41
2022-10-17T08:17:28.747Z,101571.25
2022-10-17T08:22:31.854Z,101583.38
2022-10-17T08:27:42.948Z,101590.63
2022-10-17T08:32:45.872Z,101441.69
2022-10-17T08:37:48.769Z,101606.31
2022-10-17T08:43:10.327Z,101610.31
2022-10-17T08:48:24.772Z,101615.16
2022-10-17T08:53:33.964Z,101533.59
2022-10-17T08:58:48.719Z,101628.75
2022-10-17T09:04:07.871Z,101507.69
2022-10-17T09:09:26.090Z,101648.00
2022-10-17T09:14:44.601Z,101485.38
2022-10-17T09:19:57.538Z,101610.28
2022-10-17T09:25:07.545Z,101654.78
2022-10-17T09:30:51.566Z,101674.72
2022-10-17T09:35:55.098Z,101694.94
2022-10-17T09:41:01.510Z,101708.19
2022-10-17T09:46:10.000Z,101710.97
2022-10-17T09:51:25.149Z,101552.72
2022-10-17T09:56:29.424Z,101719.50
2022-10-17T10:01:34.821Z,101728.47
2022-10-17T10:06:38.044Z,101656.72
2022-10-17T10:11:48.915Z,101726.53
2022-10-17T10:16:54.599Z,101576.22
2022-10-17T10:22:00.441Z,101717.00
2022-10-17T10:27:05.837Z,101606.78
2022-10-17T10:32:19.451Z,101703.81
2022-10-17T10:37:39.361Z,101455.78
2022-10-17T10:42:48.335Z,101727.13
2022-10-17T10:48:02.047Z,101709.38
2022-10-17T10:53:18.699Z,101480.59
2022-10-17T10:58:41.791Z,101636.25
2022-10-17T11:03:59.558Z,101765.34
2022-10-17T11:09:14.898Z,101755.31
2022-10-17T11:14:25.070Z,101627.13
2022-10-17T11:19:36.340Z,101752.63
2022-10-17T11:24:47.490Z,101596.97
2022-10-17T11:29:50.275Z,101768.72
2022-10-17T11:35:01.113Z,101596.31
2022-10-17T11:40:07.679Z,101801.59
2022-10-17T11:45:15.409Z,101759.00
2022-10-17T11:55:49.349Z,101794.38
2022-10-17T12:00:59.404Z,101808.94
2022-10-17T12:06:14.215Z,101756.53
2022-10-17T12:11:28.407Z,101791.78
2022-10-17T12:16:47.173Z,101761.03
2022-10-17T12:22:06.861Z,101737.22
2022-10-17T12:27:41.492Z,101817.44
2022-10-17T12:33:06.138Z,101815.84
2022-10-17T12:38:49.836Z,101811.22
2022-10-17T12:45:01.038Z,101468.84
2022-10-17T12:49:43.787Z,101562.13
2022-10-17T12:55:10.956Z,101839.09
2022-10-17T13:00:36.242Z,101839.91
2022-10-17T13:05:42.201Z,101452.75
2022-10-17T13:10:51.611Z,101823.78
2022-10-17T13:15:59.251Z,101707.13
2022-10-17T13:21:05.580Z,101852.59
2022-10-17T13:26:16.228Z,101734.72
2022-10-17T13:31:30.916Z,101878.19
2022-10-17T13:36:38.005Z,101878.69
2022-10-17T13:41:42.570Z,101610.88
2022-10-17T13:46:52.900Z,101825.59
2022-10-17T13:51:59.111Z,101829.00
2022-10-17T13:57:06.479Z,101863.13
2022-10-17T14:02:16.561Z,101490.09
2022-10-17T14:07:46.242Z,101910.28
2022-10-17T14:12:57.354Z,101581.44
2022-10-17T14:18:07.788Z,101908.69
2022-10-17T14:23:33.819Z,101911.78
2022-10-17T14:28:38.706Z,101916.09
2022-10-17T14:33:51.045Z,101743.53
2022-10-17T14:38:58.568Z,101919.38
2022-10-17T14:44:04.640Z,101787.78
2022-10-17T14:49:24.230Z,101733.84
2022-10-17T14:54:30.167Z,101978.91
2022-10-17T14:59:53.489Z,101983.09
2022-10-17T15:04:58.925Z,101899.94
2022-10-17T15:10:04.321Z,101999.06
2022-10-17T15:15:09.320Z,101992.81
2022-10-17T15:20:28.385Z,101958.78
2022-10-17T15:25:32.560Z,101926.50
2022-10-17T15:30:37.102Z,101986.84
2022-10-17T15:35:45.806Z,101730.13
2022-10-17T15:40:51.957Z,101950.72
2022-10-17T15:45:57.952Z,102031.03
2022-10-17T15:51:03.868Z,101929.63
2022-10-17T15:56:08.872Z,102046.25
2022-10-17T16:01:22.511Z,102057.00
2022-10-17T16:06:27.592Z,101871.13
2022-10-17T16:11:36.187Z,101864.19
2022-10-17T16:16:39.258Z,101988.41
2022-10-17T16:21:43.489Z,102053.03
2022-10-17T16:26:46.225Z,102051.44
2022-10-17T16:31:48.916Z,102059.38
2022-10-17T16:36:55.138Z,102051.34
2022-10-17T16:41:58.722Z,102019.91
2022-10-17T16:47:03.350Z,102081.50
2022-10-17T16:52:07.633Z,102085.16
2022-10-17T16:57:12.081Z,102021.56
2022-10-17T17:02:17.597Z,102013.16
2022-10-17T17:07:25.210Z,102025.59
2022-10-17T17:12:27.892Z,102091.50
2022-10-17T17:17:48.677Z,102090.84
2022-10-17T17:22:53.776Z,102090.09
2022-10-17T17:27:56.676Z,101953.94
2022-10-17T17:33:00.553Z,101881.16
2022-10-17T17:38:10.036Z,102004.78
2022-10-17T17:43:15.531Z,101865.28
2022-10-17T17:48:18.869Z,101997.72
2022-10-17T17:53:27.956Z,101893.03
2022-10-17T17:58:32.574Z,101870.84
2022-10-17T18:03:35.446Z,102120.84
2022-10-17T18:08:40.193Z,102077.25
2022-10-17T18:13:42.979Z,101947.41
2022-10-17T18:18:46.356Z,102000.34
2022-10-17T18:23:51.711Z,102165.88
2022-10-17T18:28:55.352Z,102146.13
2022-10-17T18:34:09.290Z,102002.09
2022-10-17T18:39:21.558Z,102112.06
2022-10-17T18:44:24.547Z,102167.44
2022-10-17T18:49:27.469Z,102006.91
2022-10-17T18:54:33.509Z,101954.91
2022-10-17T18:59:38.253Z,102087.72
2022-10-17T19:04:41.119Z,102198.50
2022-10-17T19:09:45.778Z,102103.31
2022-10-17T19:14:50.727Z,101850.81
2022-10-17T19:19:55.049Z,102117.09
2022-10-17T19:25:00.676Z,102028.75
2022-10-17T19:30:04.875Z,102060.69
2022-10-17T19:35:08.627Z,102124.94
2022-10-17T19:40:20.308Z,102204.19
2022-10-17T19:45:23.104Z,102071.94
2022-10-17T19:50:27.406Z,102087.84
2022-10-17T19:55:34.797Z,102012.69
2022-10-17T20:00:37.672Z,102009.72
2022-10-17T20:05:40.589Z,102008.72
2022-10-17T20:10:44.876Z,102220.59
2022-10-17T20:15:55.283Z,101851.19
2022-10-17T20:21:06.487Z,101950.63
2022-10-17T20:31:45.835Z,102185.25
2022-10-17T20:36:49.209Z,102209.66
2022-10-17T20:41:53.534Z,102187.09
2022-10-17T20:47:04.423Z,101971.31
2022-10-17T20:52:07.466Z,102226.72
2022-10-17T20:57:12.794Z,101981.25
2022-10-17T21:02:15.864Z,102222.41
2022-10-17T21:07:20.777Z,102236.19
2022-10-17T21:12:31.428Z,102182.69
2022-10-17T21:17:42.200Z,102089.72
2022-10-17T21:22:47.422Z,102186.09
2022-10-17T21:27:58.467Z,102246.63
2022-10-17T21:33:02.130Z,102243.53
2022-10-17T21:38:18.440Z,102234.22
2022-10-17T21:43:49.360Z,102260.97
2022-10-17T21:48:52.777Z,101919.03
2022-10-17T21:53:59.452Z,102176.50
2022-10-17T21:59:24.665Z,102251.50
2022-10-17T22:04:30.870Z,102122.16
2022-10-17T22:09:38.177Z,102172.38
2022-10-17T22:15:05.536Z,101786.22
2022-10-17T22:20:25.365Z,102280.91
2022-10-17T22:25:28.142Z,102294.19
2022-10-17T22:30:32.328Z,101981.44
2022-10-17T22:35:36.876Z,102283.19
2022-10-17T22:40:46.285Z,102130.91
2022-10-17T22:45:58.846Z,102229.44
2022-10-17T22:51:02.571Z,102280.28
2022-10-17T22:56:09.223Z,102207.00
2022-10-17T23:01:18.848Z,102296.41
2022-10-17T23:06:24.456Z,102240.94
2022-10-17T23:11:30.099Z,102231.19
2022-10-17T23:16:43.456Z,102016.56
2022-10-17T23:21:48.196Z,102297.63
2022-10-17T23:26:50.835Z,102301.53
2022-10-17T23:32:06.675Z,102033.34
2022-10-17T23:37:17.467Z,102307.00
2022-10-17T23:42:23.530Z,102295.38
2022-10-17T23:47:29.983Z,102051.34
2022-10-17T23:52:33.050Z,102068.88
2022-10-17T23:57:38.192Z,102263.84
